Time;durP1;ratioP1;P1;durP2;ratioP2;P2;SDS_P1;SDS_P2;PMS_P1;PMS_P2;Temp;Humidity;BMP_temperature;BMP_pressure;BME280_temperature;BME280_humidity;BME280_pressure;Samples;Min_cycle;Max_cycle;Signal;HPM_P1;HPM_P2
2021/06/04 00:01:20;;;;;;;;;;;;;;;23.72;44.12;101907.03;2209448;39;115469;-53
2021/06/04 00:02:52;;;;;;;;;;;;;;;23.75;44.14;101900.81;2208939;39;114718;-52
2021/06/04 00:04:25;;;;;;;;;;;;;;;23.76;44.28;101894.81;2204061;39;115646;-54
2021/06/04 00:05:56;;;;;;;;;;;;;;;23.76;44.11;101905.28;2205491;39;115540;-53
2021/06/04 00:07:28;;;;;;;;;;;;;;;23.78;44.34;101900.19;2208325;39;114015;-52
2021/06/04 00:09:00;;;;;;;;;;;;;;;23.81;44.37;101905.19;2209870;39;114146;-54
2021/06/04 00:10:35;;;;;;;;;;;;;;;23.81;44.29;101910.84;2206640;39;114080;-53
2021/06/04 00:12:07;;;;;;;;;;;;;;;23.82;44.47;101901.22;2208609;39;113836;-52
2021/06/04 00:13:46;;;;;;;;;;;;;;;23.83;44.35;101915.06;2210970;39;113697;-53
2021/06/04 00:15:20;;;;;;;;;;;;;;;23.87;44.31;101918.94;2209954;39;113784;-53
2021/06/04 00:16:54;;;;;;;;;;;;;;;23.89;44.39;101918.63;2210610;39;114734;-53
2021/06/04 00:18:26;;;;;;;;;;;;;;;23.89;44.53;101913.00;2208298;39;113739;-54
2021/06/04 00:19:58;;;;;;;;;;;;;;;23.91;44.33;101907.84;2204964;39;113684;-52
2021/06/04 00:21:31;;;;;;;;;;;;;;;23.91;44.63;101908.69;2206984;39;114316;-52
2021/06/04 00:23:04;;;;;;;;;;;;;;;23.92;44.62;101916.03;2207856;39;113989;-53
2021/06/04 00:24:36;;;;;;;;;;;;;;;23.91;44.70;101908.69;2205219;39;113941;-52
2021/06/04 00:26:08;;;;;;;;;;;;;;;23.92;44.63;101906.72;2204112;39;114257;-54
2021/06/04 00:27:40;;;;;;;;;;;;;;;23.94;44.55;101910.06;2210826;39;113672;-53
2021/06/04 00:29:12;;;;;;;;;;;;;;;23.93;44.77;101902.75;2210950;39;114731;-52
2021/06/04 00:30:44;;;;;;;;;;;;;;;23.93;44.92;101903.59;2209986;39;114854;-53
2021/06/04 00:32:17;;;;;;;;;;;;;;;23.93;44.98;101897.94;2207960;39;114108;-60
2021/06/04 00:33:49;;;;;;;;;;;;;;;23.96;44.83;101902.13;2206704;39;114908;-52
2021/06/04 00:35:22;;;;;;;;;;;;;;;23.99;44.82;101897.84;2203379;39;115018;-53
2021/06/04 00:36:54;;;;;;;;;;;;;;;23.97;45.08;101897.31;2201163;39;114812;-52
2021/06/04 00:38:26;;;;;;;;;;;;;;;23.94;45.08;101893.13;2209272;39;114899;-53
2021/06/04 00:39:57;;;;;;;;;;;;;;;23.96;45.49;101898.47;2208795;39;115353;-53
2021/06/04 00:41:33;;;;;;;;;;;;;;;23.96;45.32;101890.00;2207903;39;115725;-54
2021/06/04 00:43:06;;;;;;;;;;;;;;;23.97;45.52;101891.69;2207183;39;114940;-53
2021/06/04 00:44:38;;;;;;;;;;;;;;;23.98;45.20;101885.72;2203085;39;113975;-53
2021/06/04 00:46:10;;;;;;;;;;;;;;;23.98;45.58;101884.88;2207118;39;113972;-54
2021/06/04 00:47:41;;;;;;;;;;;;;;;23.97;45.44;101884.03;2210956;39;115037;-52
2021/06/04 00:49:13;;;;;;;;;;;;;;;23.98;45.55;101884.88;2212302;39;114845;-53
2021/06/04 00:50:47;;;;;;;;;;;;;;;23.98;45.86;101884.88;2208624;39;115443;-53
2021/06/04 00:52:26;;;;;;;;;;;;;;;23.98;45.66;101884.88;2206533;39;115567;-53
2021/06/04 00:53:58;;;;;;;;;;;;;;;23.99;46.12;101892.19;2207075;39;115602;-52
2021/06/04 00:55:30;;;;;;;;;;;;;;;24.00;45.57;101885.41;2204876;39;115517;-54
2021/06/04 00:57:03;;;;;;;;;;;;;;;23.98;45.84;101894.19;2207929;39;115550;-53
2021/06/04 00:58:37;;;;;;;;;;;;;;;24.02;45.91;101895.25;2199849;39;115496;-53
2021/06/04 01:00:15;;;;;;;;;;;;;;;24.02;46.16;101886.78;2205414;39;115612;-53
2021/06/04 01:01:46;;;;;;;;;;;;;;;24.01;46.18;101896.41;2200432;39;114591;-52
2021/06/04 01:03:20;;;;;;;;;;;;;;;24.02;46.06;101897.22;2204177;39;116434;-53
2021/06/04 01:04:52;;;;;;;;;;;;;;;24.02;46.28;101892.44;2201757;39;115673;-53
2021/06/04 01:06:50;;;;;;;;;;;;;;;24.04;46.09;101898.59;2205664;39;115445;-53
2021/06/04 01:08:35;;;;;;;;;;;;;;;24.03;46.43;101898.91;2208589;39;114700;-52
2021/06/04 01:10:09;;;;;;;;;;;;;;;24.03;45.94;101891.25;2209544;39;114621;-53
2021/06/04 01:11:50;;;;;;;;;;;;;;;24.04;46.21;101892.94;2208671;39;114709;-53
2021/06/04 01:13:21;;;;;;;;;;;;;;;24.04;46.56;101898.59;2212302;39;115871;-52
2021/06/04 01:15:03;;;;;;;;;;;;;;;24.03;46.51;101899.72;2207159;39;113805;-53
2021/06/04 01:16:35;;;;;;;;;;;;;;;24.04;46.23;101895.75;2209751;39;113862;-53
2021/06/04 01:18:09;;;;;;;;;;;;;;;24.05;46.28;101897.44;2208742;39;113707;-53
2021/06/04 01:19:41;;;;;;;;;;;;;;;24.05;46.38;101893.78;2209846;39;113667;-53
2021/06/04 01:21:19;;;;;;;;;;;;;;;24.06;46.82;101904.78;2210688;39;113863;-54
2021/06/04 01:22:51;;;;;;;;;;;;;;;24.05;46.70;101894.63;2200700;39;113983;-53
2021/06/04 01:24:26;;;;;;;;;;;;;;;24.04;46.49;101900.56;2206076;39;113792;-53
2021/06/04 01:26:00;;;;;;;;;;;;;;;24.04;46.67;101897.75;2210432;39;114032;-53
2021/06/04 01:27:34;;;;;;;;;;;;;;;24.05;46.78;101897.44;2201703;39;113847;-53
2021/06/04 01:29:10;;;;;;;;;;;;;;;24.06;46.67;101906.75;2206355;39;114040;-54
2021/06/04 01:30:45;;;;;;;;;;;;;;;24.06;46.72;101901.13;2208437;39;113792;-53
2021/06/04 01:32:19;;;;;;;;;;;;;;;24.05;46.79;101899.44;2210291;39;113706;-53
2021/06/04 01:33:53;;;;;;;;;;;;;;;24.06;46.65;101903.94;2209936;39;114072;-53
2021/06/04 01:35:28;;;;;;;;;;;;;;;24.06;46.80;101907.59;2212828;39;114087;-53
2021/06/04 01:37:07;;;;;;;;;;;;;;;24.06;47.14;101910.44;2208232;39;114594;-53
2021/06/04 01:38:41;;;;;;;;;;;;;;;24.07;47.29;101911.28;2208186;39;114905;-54
2021/06/04 01:40:15;;;;;;;;;;;;;;;24.07;47.05;101909.28;2210057;39;114926;-52
2021/06/04 01:41:48;;;;;;;;;;;;;;;24.08;47.10;101904.44;2209991;39;115086;-53
2021/06/04 01:43:23;;;;;;;;;;;;;;;24.05;47.14;101908.75;2207218;39;114184;-53
2021/06/04 01:44:57;;;;;;;;;;;;;;;24.08;47.28;101896.81;2204515;39;113977;-52
2021/06/04 01:46:31;;;;;;;;;;;;;;;24.09;47.33;101900.47;2209538;39;115196;-53
2021/06/04 01:48:11;;;;;;;;;;;;;;;24.09;47.49;101886.38;2208193;39;114975;-53
2021/06/04 01:49:47;;;;;;;;;;;;;;;24.09;47.78;101901.31;2204949;39;115283;-54
2021/06/04 01:51:26;;;;;;;;;;;;;;;24.10;47.38;101893.69;2203193;39;115245;-54
2021/06/04 01:52:59;;;;;;;;;;;;;;;24.11;47.79;101887.75;2209975;39;114979;-53
2021/06/04 01:54:36;;;;;;;;;;;;;;;24.12;47.45;101886.56;2209897;39;114954;-52
2021/06/04 01:56:26;;;;;;;;;;;;;;;24.12;47.52;101878.09;2208498;39;114965;-52
2021/06/04 01:58:13;;;;;;;;;;;;;;;24.12;47.87;101889.41;2212794;39;114787;-53
2021/06/04 01:59:48;;;;;;;;;;;;;;;24.12;47.55;101900.69;2210853;39;115628;-53
2021/06/04 02:01:25;;;;;;;;;;;;;;;24.13;47.74;101891.09;2210902;39;115506;-52
2021/06/04 02:02:58;;;;;;;;;;;;;;;24.15;47.71;101896.44;2211044;39;115848;-53
2021/06/04 02:04:40;;;;;;;;;;;;;;;24.14;47.65;101898.41;2211391;39;116536;-54
2021/06/04 02:06:12;;;;;;;;;;;;;;;24.16;47.63;101892.50;2210299;39;115725;-53
2021/06/04 02:07:44;;;;;;;;;;;;;;;24.15;47.44;101897.28;2211591;39;115338;-53
2021/06/04 02:09:16;;;;;;;;;;;;;;;24.16;48.03;101886.84;2207835;39;115567;-54
2021/06/04 02:10:50;;;;;;;;;;;;;;;24.16;47.84;101895.31;2211071;39;114577;-53
2021/06/04 02:12:21;;;;;;;;;;;;;;;24.16;47.69;101892.50;2210682;39;115019;-52
2021/06/04 02:13:54;;;;;;;;;;;;;;;24.15;47.62;101887.97;2206915;39;114503;-54
2021/06/04 02:15:32;;;;;;;;;;;;;;;24.16;47.43;101887.69;2205085;39;115842;-53
2021/06/04 02:17:27;;;;;;;;;;;;;;;24.16;47.56;101887.69;2205498;39;114616;-53
2021/06/04 02:19:22;;;;;;;;;;;;;;;24.15;47.85;101880.31;2196341;39;115560;-53
2021/06/04 02:21:06;;;;;;;;;;;;;;;24.15;47.82;101894.44;2204744;39;116080;-53
2021/06/04 02:22:47;;;;;;;;;;;;;;;24.16;47.94;101895.31;2203991;39;113778;-52
2021/06/04 02:24:39;;;;;;;;;;;;;;;24.15;47.66;101900.09;2200522;39;113857;-53
2021/06/04 02:26:11;;;;;;;;;;;;;;;24.15;47.87;101905.75;2199194;39;113826;-54
2021/06/04 02:27:50;;;;;;;;;;;;;;;24.17;47.84;101897.81;2199160;39;113551;-54
2021/06/04 02:29:26;;;;;;;;;;;;;;;24.18;48.01;101899.50;2198875;39;113769;-53
2021/06/04 02:31:01;;;;;;;;;;;;;;;24.18;48.03;101901.47;2198862;39;113881;-53
2021/06/04 02:32:50;;;;;;;;;;;;;;;24.20;47.95;101907.66;2205583;39;113961;-53
2021/06/04 02:34:28;;;;;;;;;;;;;;;24.18;47.92;101912.78;2205143;39;113764;-53
2021/06/04 02:36:02;;;;;;;;;;;;;;;24.16;48.22;101901.81;2204747;39;114784;-53
2021/06/04 02:37:37;;;;;;;;;;;;;;;24.20;47.88;101902.03;2203540;39;113953;-54
2021/06/04 02:39:14;;;;;;;;;;;;;;;24.19;48.26;101901.19;2201429;39;114088;-53
2021/06/04 02:40:49;;;;;;;;;;;;;;;24.19;47.97;101901.19;2199461;39;113959;-53
2021/06/04 02:42:25;;;;;;;;;;;;;;;24.19;47.92;101901.19;2201593;39;113602;-52
2021/06/04 02:43:59;;;;;;;;;;;;;;;24.19;48.54;101903.16;2204263;39;113727;-54
2021/06/04 02:45:33;;;;;;;;;;;;;;;24.19;48.22;101897.50;2205572;39;113742;-53
2021/06/04 02:47:07;;;;;;;;;;;;;;;24.20;48.53;101902.88;2201433;39;114971;-52
2021/06/04 02:48:42;;;;;;;;;;;;;;;24.21;48.56;101898.06;2204501;39;115407;-53
2021/06/04 02:50:18;;;;;;;;;;;;;;;24.22;48.69;101902.53;2204489;39;114039;-54
2021/06/04 02:51:56;;;;;;;;;;;;;;;24.21;48.47;101898.88;2204221;39;113998;-53
2021/06/04 02:53:33;;;;;;;;;;;;;;;24.22;48.53;101903.38;2200670;39;114777;-54
2021/06/04 02:55:09;;;;;;;;;;;;;;;24.24;48.45;101903.06;2201863;39;114844;-53
2021/06/04 02:56:45;;;;;;;;;;;;;;;24.21;48.68;101898.06;2199873;39;114796;-53
2021/06/04 02:58:17;;;;;;;;;;;;;;;24.23;48.76;101896.59;2202875;39;115346;-52
2021/06/04 02:59:49;;;;;;;;;;;;;;;24.25;48.65;101901.94;2203569;39;114792;-53
2021/06/04 03:01:21;;;;;;;;;;;;;;;24.24;48.69;101903.06;2202141;39;114303;-53
2021/06/04 03:02:52;;;;;;;;;;;;;;;24.25;48.43;101902.78;2203639;39;114264;-53
2021/06/04 03:04:26;;;;;;;;;;;;;;;24.24;48.64;101912.38;2202474;39;114796;-52
2021/06/04 03:05:58;;;;;;;;;;;;;;;24.25;48.68;101913.22;2202376;39;114429;-53
2021/06/04 03:07:33;;;;;;;;;;;;;;;24.24;48.78;101917.19;2204247;39;113851;-53
2021/06/04 03:09:07;;;;;;;;;;;;;;;24.27;49.08;101927.88;2206107;39;115550;-52
2021/06/04 03:10:44;;;;;;;;;;;;;;;24.27;48.96;101925.88;2204337;39;115557;-53
2021/06/04 03:12:20;;;;;;;;;;;;;;;24.27;48.96;101930.69;2200965;39;115435;-53
2021/06/04 03:13:52;;;;;;;;;;;;;;;24.27;48.91;101923.06;2205193;39;115504;-53
2021/06/04 03:15:24;;;;;;;;;;;;;;;24.29;49.06;101926.41;2204191;39;115486;-53
2021/06/04 03:16:57;;;;;;;;;;;;;;;24.28;49.16;101921.91;2203985;39;115503;-52
2021/06/04 03:18:30;;;;;;;;;;;;;;;24.29;48.88;101922.75;2202709;39;114400;-52
2021/06/04 03:20:06;;;;;;;;;;;;;;;24.30;49.03;101930.09;2204489;39;115694;-53
2021/06/04 03:21:39;;;;;;;;;;;;;;;24.30;49.06;101924.44;2204121;39;115532;-53
2021/06/04 03:23:13;;;;;;;;;;;;;;;24.30;49.32;101930.09;2204802;39;115585;-52
2021/06/04 03:24:45;;;;;;;;;;;;;;;24.32;49.28;101930.59;2208688;39;115427;-53
2021/06/04 03:26:21;;;;;;;;;;;;;;;24.32;49.57;101927.78;2212172;39;115957;-52
2021/06/04 03:27:53;;;;;;;;;;;;;;;24.31;49.41;101917.63;2209621;39;115623;-54
2021/06/04 03:29:26;;;;;;;;;;;;;;;24.30;49.56;101925.25;2210349;39;115535;-54
2021/06/04 03:30:58;;;;;;;;;;;;;;;24.31;49.35;101914.78;2211845;39;113895;-53
2021/06/04 03:32:29;;;;;;;;;;;;;;;24.29;49.98;101911.47;2211971;39;113757;-53
2021/06/04 03:34:02;;;;;;;;;;;;;;;24.30;49.57;101916.78;2211561;39;113854;-53
2021/06/04 03:35:34;;;;;;;;;;;;;;;24.30;49.68;101928.06;2212217;39;113988;-52
2021/06/04 03:37:07;;;;;;;;;;;;;;;24.29;49.90;101932.06;2203816;39;116357;-52
2021/06/04 03:38:39;;;;;;;;;;;;;;;24.32;49.72;101941.91;2208967;39;114110;-52
2021/06/04 03:40:13;;;;;;;;;;;;;;;24.32;49.57;101941.91;2208844;39;113844;-53
2021/06/04 03:41:47;;;;;;;;;;;;;;;24.34;49.63;101942.44;2206981;39;113677;-54
2021/06/04 03:43:20;;;;;;;;;;;;;;;24.32;49.62;101944.72;2211668;39;113867;-53
2021/06/04 03:44:51;;;;;;;;;;;;;;;24.31;49.54;101955.19;2210092;39;113777;-53
2021/06/04 03:46:23;;;;;;;;;;;;;;;24.33;49.49;101944.41;2208408;39;113667;-54
2021/06/04 03:47:55;;;;;;;;;;;;;;;24.31;50.10;101938.22;2207414;39;113579;-54
2021/06/04 03:49:27;;;;;;;;;;;;;;;24.32;49.89;101934.25;2206625;39;113780;-53
2021/06/04 03:51:02;;;;;;;;;;;;;;;24.31;50.14;101946.69;2205208;39;113945;-53
2021/06/04 03:52:33;;;;;;;;;;;;;;;24.32;50.05;101945.56;2204106;39;114812;-52
2021/06/04 03:54:07;;;;;;;;;;;;;;;24.32;50.39;101945.56;2209152;39;114403;-53
2021/06/04 03:55:39;;;;;;;;;;;;;;;24.31;50.51;101937.38;2210662;39;115580;-53
2021/06/04 03:57:12;;;;;;;;;;;;;;;24.32;50.08;101944.72;2211119;39;114898;-53
2021/06/04 03:58:44;;;;;;;;;;;;;;;24.33;49.89;101946.41;2208818;39;114158;-52
2021/06/04 04:00:27;;;;;;;;;;;;;;;24.31;50.07;101946.69;2206207;39;115141;-53
2021/06/04 04:02:00;;;;;;;;;;;;;;;24.35;50.02;101946.91;2207612;39;115440;-53
2021/06/04 04:03:32;;;;;;;;;;;;;;;24.32;49.99;101945.56;2210698;39;114028;-53
2021/06/04 04:05:05;;;;;;;;;;;;;;;24.33;49.92;101952.06;2204048;39;114878;-53
2021/06/04 04:06:37;;;;;;;;;;;;;;;24.32;50.35;101951.22;2204705;39;114928;-53
2021/06/04 04:08:10;;;;;;;;;;;;;;;24.34;50.02;101942.44;2206892;39;114461;-52
2021/06/04 04:09:41;;;;;;;;;;;;;;;24.34;49.71;101939.63;2206141;39;114815;-53
2021/06/04 04:11:13;;;;;;;;;;;;;;;24.35;49.57;101942.09;2209597;39;114905;-53
2021/06/04 04:12:44;;;;;;;;;;;;;;;24.32;50.22;101939.91;2210354;39;114885;-52
2021/06/04 04:14:17;;;;;;;;;;;;;;;24.33;50.11;101941.59;2207649;39;115756;-52
2021/06/04 04:15:48;;;;;;;;;;;;;;;24.34;50.12;101945.25;2207493;39;116090;-53
2021/06/04 04:17:21;;;;;;;;;;;;;;;24.34;50.76;101953.75;2211173;39;115480;-53
2021/06/04 04:18:52;;;;;;;;;;;;;;;24.32;49.19;101951.22;2211394;39;115655;-52
2021/06/04 04:20:29;;;;;;;;;;;;;;;24.28;48.00;101943.66;2206166;39;115889;-53
2021/06/04 04:22:01;;;;;;;;;;;;;;;24.26;48.02;101943.13;2209718;39;115827;-54
2021/06/04 04:23:38;;;;;;;;;;;;;;;24.24;47.21;101945.44;2202991;39;115043;-52
2021/06/04 04:25:10;;;;;;;;;;;;;;;24.19;47.48;101943.53;2199331;39;115529;-52
2021/06/04 04:26:42;;;;;;;;;;;;;;;24.15;47.86;101948.09;2203667;39;115685;-53
2021/06/04 04:28:16;;;;;;;;;;;;;;;24.03;43.07;101950.56;2205318;39;114555;-53
2021/06/04 04:29:48;;;;;;;;;;;;;;;23.87;42.04;101949.13;2203312;39;115944;-53
2021/06/04 04:31:21;;;;;;;;;;;;;;;23.82;41.73;101949.22;2203820;39;115528;-53
2021/06/04 04:32:54;;;;;;;;;;;;;;;23.74;41.16;101950.75;2204190;39;115582;-53
2021/06/04 04:34:26;;;;;;;;;;;;;;;23.67;41.27;101949.44;2202804;39;114852;-53
2021/06/04 04:35:59;;;;;;;;;;;;;;;23.65;41.05;101941.31;2206347;39;114676;-53
2021/06/04 04:37:30;;;;;;;;;;;;;;;23.67;40.68;101935.34;2204042;39;113800;-53
2021/06/04 04:39:03;;;;;;;;;;;;;;;23.62;41.38;101926.97;2204436;39;113893;-53
2021/06/04 04:40:37;;;;;;;;;;;;;;;23.63;41.96;101921.00;2200580;39;113830;-52
2021/06/04 04:42:10;;;;;;;;;;;;;;;23.64;42.72;101916.22;2200925;39;113690;-53
2021/06/04 04:43:45;;;;;;;;;;;;;;;23.67;43.55;101921.22;2199808;39;113761;-53
2021/06/04 04:45:18;;;;;;;;;;;;;;;23.66;44.12;101919.56;2199882;39;113544;-53
2021/06/04 04:46:53;;;;;;;;;;;;;;;23.68;44.67;101929.41;2199257;39;113825;-53
2021/06/04 04:48:24;;;;;;;;;;;;;;;23.69;44.71;101930.25;2199420;39;113961;-53
2021/06/04 04:49:56;;;;;;;;;;;;;;;23.68;45.16;101937.84;2204597;39;114785;-53
2021/06/04 04:51:29;;;;;;;;;;;;;;;23.73;45.14;101951.91;2200128;39;114166;-53
2021/06/04 04:53:01;;;;;;;;;;;;;;;23.74;45.04;101947.09;2201423;39;114006;-52
2021/06/04 04:54:32;;;;;;;;;;;;;;;23.76;45.27;101956.06;2201371;39;113889;-52
2021/06/04 04:56:05;;;;;;;;;;;;;;;23.77;45.53;101954.94;2205271;39;113742;-52
2021/06/04 04:57:36;;;;;;;;;;;;;;;23.78;45.50;101956.63;2203984;39;113846;-58
2021/06/04 04:59:09;;;;;;;;;;;;;;;23.78;45.50;101963.09;2204737;39;113983;-52
2021/06/04 05:00:41;;;;;;;;;;;;;;;23.79;45.59;101966.78;2201268;39;114185;-53
2021/06/04 05:02:13;;;;;;;;;;;;;;;23.79;45.67;101964.78;2201336;39;114809;-53
2021/06/04 05:03:45;;;;;;;;;;;;;;;23.81;45.78;101965.31;2202013;39;115239;-53
2021/06/04 05:05:18;;;;;;;;;;;;;;;23.79;45.65;101964.78;2202155;39;113917;-53
2021/06/04 05:06:52;;;;;;;;;;;;;;;23.82;45.99;101968.97;2202669;39;114777;-52
2021/06/04 05:08:23;;;;;;;;;;;;;;;23.83;46.00;101970.66;2204078;39;113899;-53
2021/06/04 05:09:57;;;;;;;;;;;;;;;23.84;45.62;101963.88;2208814;39;114148;-53
2021/06/04 05:11:29;;;;;;;;;;;;;;;23.84;45.86;101972.34;2202590;39;114876;-53
2021/06/04 05:13:01;;;;;;;;;;;;;;;23.85;46.14;101966.38;2204458;39;114826;-53
2021/06/04 05:14:33;;;;;;;;;;;;;;;23.86;45.95;101965.22;2204631;39;114823;-53
2021/06/04 05:16:05;;;;;;;;;;;;;;;23.86;46.15;101965.22;2201214;39;114180;-53
2021/06/04 05:17:37;;;;;;;;;;;;;;;23.88;46.29;101970.59;2202093;39;115471;-53
2021/06/04 05:19:09;;;;;;;;;;;;;;;23.89;46.04;101973.06;2205136;39;114837;-53
2021/06/04 05:20:42;;;;;;;;;;;;;;;23.90;46.14;101973.91;2208133;39;115517;-53
2021/06/04 05:22:14;;;;;;;;;;;;;;;23.89;46.39;101970.25;2206528;39;115791;-53
2021/06/04 05:23:46;;;;;;;;;;;;;;;23.91;46.24;101973.63;2208334;39;115933;-54
2021/06/04 05:25:23;;;;;;;;;;;;;;;23.93;46.32;101981.78;2208151;39;115567;-54
2021/06/04 05:26:55;;;;;;;;;;;;;;;23.93;46.38;101976.16;2211327;39;115851;-53
2021/06/04 05:28:27;;;;;;;;;;;;;;;23.92;46.24;101978.13;2208283;39;114527;-52
2021/06/04 05:29:59;;;;;;;;;;;;;;;23.91;46.44;101964.31;2207758;39;115904;-53
2021/06/04 05:31:31;;;;;;;;;;;;;;;23.92;46.54;101972.47;2210472;39;114587;-53
2021/06/04 05:33:03;;;;;;;;;;;;;;;23.93;46.49;101971.34;2206679;39;115975;-52
2021/06/04 05:34:36;;;;;;;;;;;;;;;23.94;46.52;101963.69;2206821;39;115835;-53
2021/06/04 05:36:09;;;;;;;;;;;;;;;23.95;46.77;101956.91;2209308;39;115741;-53
2021/06/04 05:37:41;;;;;;;;;;;;;;;23.94;46.65;101958.03;2206277;39;115497;-52
2021/06/04 05:39:15;;;;;;;;;;;;;;;23.93;46.78;101950.75;2206234;39;115831;-52
2021/06/04 05:40:50;;;;;;;;;;;;;;;23.94;46.77;101941.09;2208912;39;114596;-53
2021/06/04 05:42:22;;;;;;;;;;;;;;;23.94;46.84;101944.78;2209785;39;113685;-53
2021/06/04 05:43:54;;;;;;;;;;;;;;;23.93;46.75;101951.59;2205149;39;113795;-52
2021/06/04 05:45:27;;;;;;;;;;;;;;;23.94;46.79;101943.94;2208930;39;115280;-54
2021/06/04 05:47:02;;;;;;;;;;;;;;;23.94;46.79;101938.28;2211084;39;113569;-53
2021/06/04 05:48:34;;;;;;;;;;;;;;;23.94;46.99;101939.13;2204591;39;113783;-53
2021/06/04 05:50:07;;;;;;;;;;;;;;;23.96;46.97;101933.19;2203629;39;114050;-53
2021/06/04 05:51:39;;;;;;;;;;;;;;;23.97;46.72;101936.84;2207997;39;114050;-53
2021/06/04 05:53:12;;;;;;;;;;;;;;;23.96;46.81;101930.34;2209086;39;114011;-53
2021/06/04 05:54:45;;;;;;;;;;;;;;;23.96;46.98;101933.19;2210110;39;113965;-53
2021/06/04 05:56:17;;;;;;;;;;;;;;;23.98;46.97;101938.53;2209198;39;113623;-53
2021/06/04 05:57:49;;;;;;;;;;;;;;;23.98;46.84;101942.19;2206481;39;113990;-53
2021/06/04 05:59:20;;;;;;;;;;;;;;;24.00;46.79;101947.50;2207366;39;113621;-53
2021/06/04 06:00:55;;;;;;;;;;;;;;;23.98;46.87;101941.34;2210846;39;113808;-53
2021/06/04 06:02:27;;;;;;;;;;;;;;;23.95;47.13;101956.91;2211505;39;114306;-52
2021/06/04 06:03:59;;;;;;;;;;;;;;;23.98;47.10;101958.28;2210651;39;113666;-52
2021/06/04 06:05:31;;;;;;;;;;;;;;;23.99;47.34;101962.75;2209138;39;114859;-53
2021/06/04 06:07:03;;;;;;;;;;;;;;;23.98;47.04;101970.44;2209745;39;114851;-53
2021/06/04 06:08:34;;;;;;;;;;;;;;;23.98;47.16;101972.41;2207526;39;114845;-53
2021/06/04 06:10:06;;;;;;;;;;;;;;;23.97;46.99;101977.22;2210979;39;114520;-53
2021/06/04 06:11:38;;;;;;;;;;;;;;;23.98;46.96;101981.72;2207512;39;115535;-54
2021/06/04 06:13:10;;;;;;;;;;;;;;;23.99;47.19;101988.19;2208163;39;115081;-53
2021/06/04 06:14:42;;;;;;;;;;;;;;;23.99;47.12;101980.56;2207233;39;114656;-53
2021/06/04 06:16:14;;;;;;;;;;;;;;;24.01;46.95;101977.44;2210729;39;114208;-53
2021/06/04 06:17:45;;;;;;;;;;;;;;;24.01;47.32;101972.63;2211122;39;114780;-52
2021/06/04 06:19:18;;;;;;;;;;;;;;;23.99;47.37;101974.91;2203608;39;114281;-54
2021/06/04 06:20:50;;;;;;;;;;;;;;;24.00;47.16;101970.09;2207671;39;114990;-53
2021/06/04 06:22:22;;;;;;;;;;;;;;;23.98;47.38;101963.94;2210415;39;114834;-53
2021/06/04 06:23:53;;;;;;;;;;;;;;;23.98;47.45;101955.47;2208517;39;114850;-53
2021/06/04 06:25:31;;;;;;;;;;;;;;;24.00;47.41;101956.81;2210701;39;114643;-53
2021/06/04 06:27:02;;;;;;;;;;;;;;;23.99;47.40;101951.47;2203597;39;115474;-54
2021/06/04 06:28:36;;;;;;;;;;;;;;;24.01;47.48;101955.69;2207103;39;115484;-52
2021/06/04 06:30:12;;;;;;;;;;;;;;;24.00;47.36;101962.47;2210992;39;114993;-53
2021/06/04 06:31:45;;;;;;;;;;;;;;;24.00;47.25;101962.47;2211568;39;115908;-52
2021/06/04 06:33:17;;;;;;;;;;;;;;;24.01;47.39;101963.31;2204948;39;114619;-53
2021/06/04 06:34:49;;;;;;;;;;;;;;;24.01;47.47;101966.97;2206034;39;114661;-53
2021/06/04 06:36:26;;;;;;;;;;;;;;;24.02;47.72;101965.00;2212239;39;115613;-52
2021/06/04 06:37:58;;;;;;;;;;;;;;;24.04;47.50;101971.16;2206888;39;115462;-53
2021/06/04 06:39:31;;;;;;;;;;;;;;;24.03;47.46;101969.50;2209975;39;114569;-52
2021/06/04 06:41:04;;;;;;;;;;;;;;;24.04;47.23;101969.19;2211633;39;114548;-53
2021/06/04 06:42:35;;;;;;;;;;;;;;;24.04;47.59;101968.34;2212136;39;115867;-53
2021/06/04 06:44:09;;;;;;;;;;;;;;;24.04;47.49;101977.66;2210101;39;115944;-53
2021/06/04 06:45:41;;;;;;;;;;;;;;;24.03;47.73;101975.97;2206189;39;116017;-53
2021/06/04 06:47:12;;;;;;;;;;;;;;;24.05;47.38;101982.16;2210077;39;114572;-53
2021/06/04 06:48:44;;;;;;;;;;;;;;;24.01;47.54;101978.28;2210347;39;114956;-53
2021/06/04 06:50:16;;;;;;;;;;;;;;;24.04;47.53;101988.94;2206272;39;114043;-53
2021/06/04 06:51:48;;;;;;;;;;;;;;;24.05;47.91;101984.13;2210186;39;114101;-53
2021/06/04 06:53:22;;;;;;;;;;;;;;;24.03;47.92;101981.59;2207628;39;113976;-53
2021/06/04 06:54:54;;;;;;;;;;;;;;;24.05;48.14;101982.16;2207287;39;113683;-53
2021/06/04 06:56:27;;;;;;;;;;;;;;;24.04;48.14;101979.63;2212221;39;113894;-52
2021/06/04 06:57:59;;;;;;;;;;;;;;;24.06;47.92;101981.00;2210612;39;113734;-53
2021/06/04 06:59:31;;;;;;;;;;;;;;;24.06;48.15;101983.00;2211296;39;113659;-53
2021/06/04 07:01:04;;;;;;;;;;;;;;;24.05;48.30;101982.16;2210921;39;113851;-52
2021/06/04 07:02:36;;;;;;;;;;;;;;;24.05;48.38;101981.31;2206030;39;113891;-53
2021/06/04 07:04:08;;;;;;;;;;;;;;;24.05;48.27;101987.81;2206281;39;113598;-53
2021/06/04 07:05:40;;;;;;;;;;;;;;;24.07;48.48;101991.16;2207179;39;113587;-53
2021/06/04 07:07:12;;;;;;;;;;;;;;;24.07;48.40;101993.16;2209658;39;113787;-52
2021/06/04 07:08:44;;;;;;;;;;;;;;;24.05;48.51;101996.28;2211441;39;113733;-53
2021/06/04 07:10:17;;;;;;;;;;;;;;;24.06;48.50;102005.59;2206527;39;114117;-52
2021/06/04 07:11:52;;;;;;;;;;;;;;;24.07;48.21;101998.81;2209184;39;115010;-53
2021/06/04 07:13:28;;;;;;;;;;;;;;;24.09;48.35;102004.97;2206722;39;113959;-53
2021/06/04 07:14:59;;;;;;;;;;;;;;;24.08;48.35;102003.28;2207240;39;115133;-53
2021/06/04 07:16:31;;;;;;;;;;;;;;;24.08;48.42;102009.75;2207996;39;114950;-53
2021/06/04 07:18:03;;;;;;;;;;;;;;;24.08;48.46;102009.75;2202564;39;114906;-54
2021/06/04 07:19:35;;;;;;;;;;;;;;;24.07;48.63;102005.28;2206702;39;114351;-53
2021/06/04 07:21:08;;;;;;;;;;;;;;;24.08;48.40;102009.75;2208067;39;115304;-53
2021/06/04 07:22:40;;;;;;;;;;;;;;;24.10;48.72;102012.28;2208365;39;114480;-53
2021/06/04 07:24:15;;;;;;;;;;;;;;;24.10;48.92;102007.50;2208658;39;115060;-53
2021/06/04 07:25:47;;;;;;;;;;;;;;;24.10;48.35;102015.97;2208388;39;115679;-52
2021/06/04 07:27:19;;;;;;;;;;;;;;;24.11;48.82;102009.16;2209762;39;114962;-53
2021/06/04 07:28:54;;;;;;;;;;;;;;;24.14;48.73;102022.66;2209459;39;115017;-53
2021/06/04 07:30:31;;;;;;;;;;;;;;;24.13;48.59;102023.81;2209911;39;114140;-53
2021/06/04 07:32:03;;;;;;;;;;;;;;;24.12;48.75;102026.97;2207934;39;115546;-53
2021/06/04 07:33:36;;;;;;;;;;;;;;;24.13;48.96;102023.81;2205596;39;114753;-53
2021/06/04 07:35:10;;;;;;;;;;;;;;;24.11;48.92;102023.28;2206840;39;116158;-54
2021/06/04 07:36:46;;;;;;;;;;;;;;;24.11;49.13;102028.09;2208670;39;115455;-52
2021/06/04 07:38:19;;;;;;;;;;;;;;;24.11;49.42;102031.75;2206922;39;115586;-53
2021/06/04 07:39:50;;;;;;;;;;;;;;;24.12;48.78;102032.59;2206487;39;114847;-52
2021/06/04 07:41:23;;;;;;;;;;;;;;;24.14;49.36;102031.13;2209188;39;115993;-53
2021/06/04 07:42:55;;;;;;;;;;;;;;;24.14;48.81;102030.28;2208165;39;115568;-54
2021/06/04 07:44:27;;;;;;;;;;;;;;;24.10;48.90;102032.91;2209798;39;115609;-52
2021/06/04 07:45:59;;;;;;;;;;;;;;;24.12;48.75;102027.78;2208028;39;115938;-53
2021/06/04 07:47:31;;;;;;;;;;;;;;;24.11;49.13;102033.75;2207721;39;115796;-53
2021/06/04 07:49:03;;;;;;;;;;;;;;;24.11;49.00;102040.22;2207683;39;115821;-53
2021/06/04 07:50:36;;;;;;;;;;;;;;;24.10;49.17;102032.06;2205725;39;115470;-53
2021/06/04 07:52:07;;;;;;;;;;;;;;;24.11;48.85;102034.59;2207354;39;115902;-53
2021/06/04 07:53:39;;;;;;;;;;;;;;;24.11;49.26;102034.59;2212510;39;115458;-53
2021/06/04 07:55:12;;;;;;;;;;;;;;;24.13;48.79;102037.09;2209198;39;115059;-53
2021/06/04 07:56:43;;;;;;;;;;;;;;;24.13;49.45;102037.94;2210398;39;113871;-53